Middle Georgia Regional Airport
KMCN : rendu visible

Aérodrome :











RETROUVEZ-NOUS SUR...

 
LOGIN :

S'inscrire | Disclaimer

   EN    FR    IT 

 









Légende :    VFR   VFR Marginal   IFR   IFR Intensif   IFR Très Intensif
Visi : 
Plafond : 
>= 8 km
>= 3000ft
5 à 8 km
1000 à 3000 ft
1500m à 5 km
500 à 1000 ft
800 à 1500m
200 à 500 ft
< 800m
< 200 ft
Symboles :   Orages  Brouillard  Fortes neiges  Fortes précipitations  Vent > 20 kt






- Altitude de l'aérodrome : 354 ft
- Code IATA : MCN


KMCN - Middle Georgia Regional

DERNIER METAR :
  • 280753Z AUTO 28004KT 8SM CLR 03/02 A2999 RMK AO2 SLP154 T00330022

METARs EXPIRÉS :
  • 280653Z AUTO 31005KT 10SM CLR 05/03 A2998 RMK AO2 SLP151 T00500033
  • 280553Z AUTO 30006KT 10SM CLR 06/04 A2998 RMK AO2 SLP151 T00610039 10100 20056 58002
  • 280453Z AUTO 29006KT 10SM CLR 06/04 A3000 RMK AO2 SLP157 T00610044 401280056

TAF KMCN
Valide du 28 à 06h jusqu'au 29 à 06h UTC


280520Z 2806/2906 31004KT P6SM SKC
FM280900 32004KT 5SM BR SKC
FM281100 32004KT 4SM BR SKC
FM281400 33004KT P6SM FEW250
FM290200 00000KT P6SM FEW250



MET'MAP, la Météo Aéronautique d'un coup d'oeil ! - Copyright ORBIFLY Décembre 2007 - Disclaimer

ORBIFLY MET'MAP TEAM :

Programmation & Développement : Alexandra Zaïnal
Sur une idée originale de : Baudouin d'Aumeries
Assistance à la programmation : Marc-Olivier Méhu
Soutien technique & logistique : Manuel Goepfert

Contact : metmap@orbifly.com




SOURCES & CREDITS :

   NOAA       Earth
Advisory